createdAt,value
2017-08-29T00:00:09.697Z,0
2017-08-29T00:01:18.531Z,0
2017-08-29T00:02:27.364Z,0
2017-08-29T00:03:36.194Z,0
2017-08-29T00:04:45.024Z,0
2017-08-29T00:05:53.857Z,0
2017-08-29T00:07:02.688Z,0
2017-08-29T00:08:11.520Z,0
2017-08-29T00:09:20.356Z,0
2017-08-29T00:10:29.189Z,0
2017-08-29T00:11:38.013Z,0
2017-08-29T00:12:46.845Z,0
2017-08-29T00:13:55.690Z,0
2017-08-29T00:15:04.518Z,0
2017-08-29T00:16:13.348Z,0
2017-08-29T00:17:22.180Z,0
2017-08-29T00:18:31.012Z,0
2017-08-29T00:19:39.842Z,0
2017-08-29T00:20:48.681Z,0
2017-08-29T00:21:57.510Z,0
2017-08-29T00:23:06.346Z,0
2017-08-29T00:24:15.169Z,0
2017-08-29T00:25:23.997Z,0
2017-08-29T00:26:32.831Z,0
2017-08-29T00:27:41.661Z,0
2017-08-29T00:28:50.493Z,0
2017-08-29T00:29:59.325Z,0
2017-08-29T00:31:08.158Z,0
2017-08-29T00:32:16.985Z,0
2017-08-29T00:33:25.822Z,0
2017-08-29T00:34:34.652Z,0
2017-08-29T00:35:43.481Z,0
2017-08-29T00:36:52.317Z,0
2017-08-29T00:38:01.147Z,0
2017-08-29T00:39:09.982Z,0
2017-08-29T00:40:18.809Z,0
2017-08-29T00:41:27.642Z,0
2017-08-29T00:42:36.472Z,0
2017-08-29T00:43:45.305Z,0
2017-08-29T00:44:54.136Z,0
2017-08-29T00:46:02.966Z,0
2017-08-29T00:47:11.804Z,0
2017-08-29T00:48:20.958Z,0
2017-08-29T00:49:29.788Z,0
2017-08-29T00:50:38.622Z,0
2017-08-29T00:51:47.454Z,0
2017-08-29T00:52:56.283Z,0
2017-08-29T00:54:05.112Z,0
2017-08-29T00:55:13.948Z,0
2017-08-29T00:56:22.779Z,0
2017-08-29T00:57:31.608Z,0
2017-08-29T00:58:40.439Z,0
2017-08-29T00:59:49.273Z,0
2017-08-29T01:00:58.106Z,0
2017-08-29T01:02:06.943Z,0
2017-08-29T01:03:15.773Z,0
2017-08-29T01:04:24.606Z,0
2017-08-29T01:05:33.448Z,0
2017-08-29T01:06:42.262Z,0
2017-08-29T01:07:51.088Z,0
2017-08-29T01:08:59.922Z,0
2017-08-29T01:10:08.750Z,0
2017-08-29T01:11:17.588Z,0
2017-08-29T01:12:26.416Z,0
2017-08-29T01:13:35.253Z,0
2017-08-29T01:14:44.077Z,0
2017-08-29T01:15:52.909Z,0
2017-08-29T01:17:01.742Z,0
2017-08-29T01:18:10.573Z,0
2017-08-29T01:19:19.402Z,0
2017-08-29T01:20:28.230Z,0
2017-08-29T01:21:37.067Z,0
2017-08-29T01:22:45.900Z,0
2017-08-29T01:23:54.730Z,0
2017-08-29T01:25:03.563Z,0
2017-08-29T01:26:12.392Z,0
2017-08-29T01:27:21.225Z,0
2017-08-29T01:28:30.056Z,0
2017-08-29T01:29:38.888Z,0
2017-08-29T01:30:47.717Z,0
2017-08-29T01:31:56.552Z,0
2017-08-29T01:33:05.382Z,0
2017-08-29T01:34:14.211Z,0
2017-08-29T01:35:23.041Z,0
2017-08-29T01:36:31.870Z,0
2017-08-29T01:37:40.705Z,0
2017-08-29T01:38:49.537Z,0
2017-08-29T01:39:58.697Z,0
2017-08-29T01:41:07.525Z,0
2017-08-29T01:42:16.358Z,0
2017-08-29T01:43:25.209Z,0
2017-08-29T01:44:34.032Z,0
2017-08-29T01:45:42.865Z,0
2017-08-29T01:46:51.693Z,0
2017-08-29T01:48:00.521Z,0
2017-08-29T01:49:09.354Z,0
2017-08-29T01:50:18.185Z,0
2017-08-29T01:51:27.022Z,0
2017-08-29T01:52:35.848Z,0
2017-08-29T01:53:44.681Z,0
2017-08-29T01:54:53.507Z,0
2017-08-29T01:56:02.346Z,0
2017-08-29T01:57:11.174Z,0
2017-08-29T01:58:20.009Z,0
2017-08-29T01:59:28.837Z,0
2017-08-29T02:00:37.666Z,0
2017-08-29T02:01:46.494Z,0
2017-08-29T02:02:55.329Z,0
2017-08-29T02:04:04.166Z,0
2017-08-29T02:05:12.993Z,0
2017-08-29T02:06:21.826Z,0
2017-08-29T02:07:30.654Z,0
2017-08-29T02:08:39.486Z,0
2017-08-29T02:09:48.313Z,0
2017-08-29T02:10:57.148Z,0
2017-08-29T02:12:05.980Z,0
2017-08-29T02:13:14.814Z,0
2017-08-29T02:14:23.646Z,0
2017-08-29T02:15:32.468Z,0
2017-08-29T02:16:41.302Z,0
2017-08-29T02:17:50.130Z,0
2017-08-29T02:18:58.958Z,0
2017-08-29T02:20:08.094Z,0
2017-08-29T02:21:16.926Z,0
2017-08-29T02:22:25.756Z,0
2017-08-29T02:23:34.591Z,0
2017-08-29T02:24:43.424Z,0
2017-08-29T02:25:52.249Z,0
2017-08-29T02:27:01.083Z,0
2017-08-29T02:28:09.913Z,0
2017-08-29T02:29:18.748Z,0
2017-08-29T02:30:27.584Z,0
2017-08-29T02:31:36.738Z,0
2017-08-29T02:32:45.569Z,0
2017-08-29T02:33:54.396Z,0
2017-08-29T02:35:03.226Z,0
2017-08-29T02:36:12.058Z,0
2017-08-29T02:37:20.895Z,0
2017-08-29T02:38:29.724Z,0
2017-08-29T02:39:38.555Z,0
2017-08-29T02:40:47.386Z,0
2017-08-29T02:41:56.219Z,0
2017-08-29T02:43:05.047Z,0
2017-08-29T02:44:13.874Z,0
2017-08-29T02:45:22.711Z,0
2017-08-29T02:46:31.541Z,0
2017-08-29T02:47:40.366Z,0
2017-08-29T02:48:49.201Z,0
2017-08-29T02:49:58.026Z,0
2017-08-29T02:51:06.860Z,0
2017-08-29T02:52:15.693Z,0
2017-08-29T02:53:24.528Z,0
2017-08-29T02:54:33.351Z,0
2017-08-29T02:55:42.182Z,0
2017-08-29T02:56:51.009Z,0
2017-08-29T02:57:59.845Z,0
2017-08-29T02:59:08.681Z,0
2017-08-29T03:00:17.510Z,0
2017-08-29T03:01:26.348Z,0
2017-08-29T03:02:35.174Z,0
2017-08-29T03:03:44.008Z,0
2017-08-29T03:04:52.833Z,0
2017-08-29T03:06:01.670Z,0
2017-08-29T03:07:10.497Z,0
2017-08-29T03:08:19.327Z,0
2017-08-29T03:09:28.157Z,0
2017-08-29T03:10:36.988Z,0
2017-08-29T03:11:45.815Z,0
2017-08-29T03:12:54.645Z,0
2017-08-29T03:14:03.478Z,0
2017-08-29T03:15:12.306Z,0
2017-08-29T03:16:21.476Z,0
2017-08-29T03:17:30.325Z,0
2017-08-29T03:18:39.175Z,0
2017-08-29T03:19:48.022Z,0
2017-08-29T03:20:56.873Z,0
2017-08-29T03:22:05.724Z,0
2017-08-29T03:23:14.571Z,0
2017-08-29T03:24:23.420Z,0
2017-08-29T03:25:32.275Z,0
2017-08-29T03:26:41.122Z,0
2017-08-29T03:27:49.975Z,0
2017-08-29T03:28:58.828Z,0
2017-08-29T03:30:08.006Z,0
2017-08-29T03:31:16.861Z,0
2017-08-29T03:32:25.711Z,0
2017-08-29T03:33:34.559Z,0
2017-08-29T03:34:43.410Z,0
2017-08-29T03:35:52.260Z,0
2017-08-29T03:37:01.108Z,0
2017-08-29T03:38:09.958Z,0
2017-08-29T03:39:19.136Z,0
2017-08-29T03:40:27.984Z,0
2017-08-29T03:41:36.836Z,0
2017-08-29T03:42:45.686Z,0
2017-08-29T03:43:54.535Z,0
2017-08-29T03:45:03.385Z,0
2017-08-29T03:46:12.237Z,0
2017-08-29T03:47:21.088Z,0
2017-08-29T03:48:29.933Z,0
2017-08-29T03:49:38.788Z,0
2017-08-29T03:50:47.960Z,0
2017-08-29T03:51:56.810Z,0
2017-08-29T03:53:05.663Z,0
2017-08-29T03:54:14.512Z,0
2017-08-29T03:55:23.358Z,0
2017-08-29T03:56:32.210Z,0
2017-08-29T03:57:41.061Z,0
2017-08-29T03:58:49.906Z,0
2017-08-29T03:59:58.758Z,0
2017-08-29T04:01:07.609Z,0
2017-08-29T04:02:16.455Z,0
2017-08-29T04:03:25.306Z,0
2017-08-29T04:04:34.153Z,0
2017-08-29T04:05:43.002Z,0
2017-08-29T04:06:51.855Z,0
2017-08-29T04:08:00.706Z,0
2017-08-29T04:09:09.556Z,0
2017-08-29T04:10:18.406Z,0
2017-08-29T04:11:27.255Z,0
2017-08-29T04:12:36.103Z,0
2017-08-29T04:13:44.951Z,0
2017-08-29T04:14:53.803Z,0
2017-08-29T04:16:02.652Z,0
2017-08-29T04:17:11.503Z,0
2017-08-29T04:18:20.352Z,0
2017-08-29T04:19:29.199Z,0
2017-08-29T04:20:38.052Z,0
2017-08-29T04:21:46.904Z,0
2017-08-29T04:22:55.752Z,0
2017-08-29T04:24:04.601Z,0
2017-08-29T04:25:13.778Z,0
2017-08-29T04:26:22.626Z,0
2017-08-29T04:27:31.476Z,0
2017-08-29T04:28:40.328Z,0
2017-08-29T04:29:49.175Z,0
2017-08-29T04:30:58.021Z,0
2017-08-29T04:32:06.874Z,0
2017-08-29T04:33:15.722Z,0
2017-08-29T04:34:24.575Z,0
2017-08-29T04:35:33.426Z,0
2017-08-29T04:36:42.275Z,0
2017-08-29T04:37:51.125Z,0
2017-08-29T04:39:00.297Z,0
2017-08-29T04:40:09.146Z,0
2017-08-29T04:41:17.999Z,0
2017-08-29T04:42:26.853Z,5
2017-08-29T04:43:35.702Z,5
2017-08-29T04:44:44.552Z,5
2017-08-29T04:45:53.403Z,5
2017-08-29T04:47:02.251Z,5
2017-08-29T04:48:11.102Z,5
2017-08-29T04:49:19.953Z,5
2017-08-29T04:50:28.802Z,5
2017-08-29T04:51:37.648Z,5
2017-08-29T04:52:46.829Z,5
2017-08-29T04:53:55.678Z,5
2017-08-29T04:55:04.533Z,5
2017-08-29T04:56:13.381Z,5
2017-08-29T04:57:22.232Z,5
2017-08-29T04:58:31.079Z,5
2017-08-29T04:59:39.930Z,5
2017-08-29T05:00:48.782Z,5
2017-08-29T05:01:57.632Z,5
2017-08-29T05:03:06.485Z,5
2017-08-29T05:04:15.332Z,5
2017-08-29T05:05:24.182Z,5
2017-08-29T05:06:33.037Z,5
2017-08-29T05:07:41.889Z,5
2017-08-29T05:08:50.738Z,5
2017-08-29T05:09:59.590Z,5
2017-08-29T05:11:08.437Z,10
2017-08-29T05:12:17.285Z,10
2017-08-29T05:13:26.136Z,10
2017-08-29T05:14:34.988Z,10
2017-08-29T05:15:43.837Z,10
2017-08-29T05:16:52.685Z,10
2017-08-29T05:18:01.534Z,10
2017-08-29T05:19:10.384Z,10
2017-08-29T05:20:19.237Z,10
2017-08-29T05:21:28.090Z,10
2017-08-29T05:22:36.937Z,10
2017-08-29T05:23:45.787Z,10
2017-08-29T05:24:54.638Z,10
2017-08-29T05:26:03.487Z,10
2017-08-29T05:27:12.339Z,10
2017-08-29T05:28:21.188Z,10
2017-08-29T05:29:30.037Z,10
2017-08-29T05:30:38.887Z,10
2017-08-29T05:31:47.735Z,10
2017-08-29T05:32:56.582Z,10
2017-08-29T05:34:05.436Z,10
2017-08-29T05:35:14.288Z,10
2017-08-29T05:36:23.137Z,10
2017-08-29T05:37:31.984Z,10
2017-08-29T05:38:40.838Z,10
2017-08-29T05:39:49.686Z,15
2017-08-29T05:40:58.539Z,15
2017-08-29T05:42:07.389Z,15
2017-08-29T05:43:16.238Z,15
2017-08-29T05:44:25.087Z,15
2017-08-29T05:45:33.936Z,15
2017-08-29T05:46:42.784Z,15
2017-08-29T05:47:51.635Z,15
2017-08-29T05:49:00.487Z,15
2017-08-29T05:50:09.670Z,15
2017-08-29T05:51:18.519Z,15
2017-08-29T05:52:27.371Z,15
2017-08-29T05:53:36.227Z,15
2017-08-29T05:54:45.071Z,15
2017-08-29T05:55:53.921Z,15
2017-08-29T05:57:02.771Z,15
2017-08-29T05:58:11.618Z,15
2017-08-29T05:59:20.468Z,15
2017-08-29T06:00:29.316Z,15
2017-08-29T06:01:38.168Z,15
2017-08-29T06:02:47.018Z,15
2017-08-29T06:03:55.867Z,15
2017-08-29T06:05:04.716Z,20
2017-08-29T06:06:13.567Z,20
2017-08-29T06:07:22.414Z,20
2017-08-29T06:08:31.269Z,20
2017-08-29T06:09:40.120Z,20
2017-08-29T06:10:48.968Z,20
2017-08-29T06:11:57.816Z,20
2017-08-29T06:13:06.670Z,20
2017-08-29T06:14:15.524Z,20
2017-08-29T06:15:24.372Z,20
2017-08-29T06:16:33.224Z,20
2017-08-29T06:17:42.073Z,20
2017-08-29T06:18:50.922Z,20
2017-08-29T06:19:59.773Z,20
2017-08-29T06:21:08.625Z,20
2017-08-29T06:22:17.474Z,20
2017-08-29T06:23:26.328Z,20
2017-08-29T06:24:35.175Z,20
2017-08-29T06:25:44.024Z,20
2017-08-29T06:26:52.875Z,20
2017-08-29T06:28:01.726Z,20
2017-08-29T06:29:10.576Z,20
2017-08-29T06:30:19.430Z,25
2017-08-29T06:31:28.278Z,25
2017-08-29T06:32:37.127Z,25
2017-08-29T06:33:45.980Z,25
2017-08-29T06:34:54.838Z,25
2017-08-29T06:36:03.694Z,25
2017-08-29T06:37:12.549Z,25
2017-08-29T06:38:21.397Z,25
2017-08-29T06:39:30.247Z,25
2017-08-29T06:40:39.099Z,25
2017-08-29T06:41:47.956Z,25
2017-08-29T06:42:56.801Z,25
2017-08-29T06:44:05.654Z,25
2017-08-29T06:45:14.504Z,25
2017-08-29T06:46:23.353Z,25
2017-08-29T06:47:32.206Z,25
2017-08-29T06:48:41.059Z,25
2017-08-29T06:49:49.906Z,25
2017-08-29T06:50:58.756Z,25
2017-08-29T06:52:07.942Z,25
2017-08-29T06:53:16.790Z,25
2017-08-29T06:54:25.644Z,25
2017-08-29T06:55:34.492Z,25
2017-08-29T06:56:43.345Z,25
2017-08-29T06:57:52.198Z,30
2017-08-29T06:59:01.049Z,30
2017-08-29T07:00:09.903Z,30
2017-08-29T07:01:18.752Z,30
2017-08-29T07:02:27.599Z,30
2017-08-29T07:03:36.451Z,30
2017-08-29T07:04:45.304Z,30
2017-08-29T07:05:54.154Z,30
2017-08-29T07:07:03.008Z,30
2017-08-29T07:08:11.854Z,30
2017-08-29T07:09:20.703Z,30
2017-08-29T07:10:30.205Z,30
2017-08-29T07:11:39.058Z,30
2017-08-29T07:12:47.908Z,30
2017-08-29T07:13:56.761Z,30
2017-08-29T07:15:05.613Z,30
2017-08-29T07:16:14.460Z,30
2017-08-29T07:17:23.315Z,30
2017-08-29T07:18:32.168Z,30
2017-08-29T07:19:41.018Z,30
2017-08-29T07:20:49.871Z,30
2017-08-29T07:21:59.051Z,30
2017-08-29T07:23:07.904Z,30
2017-08-29T07:24:16.758Z,30
2017-08-29T07:25:25.613Z,30
2017-08-29T07:26:34.462Z,30
2017-08-29T07:27:43.313Z,35
2017-08-29T07:28:52.169Z,35
2017-08-29T07:30:01.018Z,35
2017-08-29T07:31:09.873Z,35
2017-08-29T07:32:18.735Z,35
2017-08-29T07:33:27.587Z,35
2017-08-29T07:34:36.436Z,35
2017-08-29T07:35:45.291Z,35
2017-08-29T07:36:54.141Z,35
2017-08-29T07:38:02.995Z,30
2017-08-29T07:39:11.851Z,35
2017-08-29T07:40:20.700Z,30
2017-08-29T07:41:29.546Z,30
2017-08-29T07:42:38.728Z,30
2017-08-29T07:43:47.576Z,30
2017-08-29T07:44:56.431Z,30
2017-08-29T07:46:05.284Z,30
2017-08-29T07:47:14.136Z,30
2017-08-29T07:48:22.989Z,30
2017-08-29T07:49:31.842Z,30
2017-08-29T07:50:40.693Z,30
2017-08-29T07:51:49.547Z,30
2017-08-29T07:52:58.402Z,30
2017-08-29T07:54:07.251Z,30
2017-08-29T07:55:16.100Z,30
2017-08-29T07:56:24.953Z,30
2017-08-29T07:57:33.804Z,30
2017-08-29T07:58:42.656Z,30
2017-08-29T07:59:51.508Z,30
2017-08-29T08:01:00.358Z,35
2017-08-29T08:02:09.209Z,35
2017-08-29T08:03:18.064Z,35
2017-08-29T08:04:26.918Z,35
2017-08-29T08:05:35.769Z,35
2017-08-29T08:06:44.623Z,35
2017-08-29T08:07:53.473Z,35
2017-08-29T08:09:02.325Z,35
2017-08-29T08:10:11.178Z,35
2017-08-29T08:11:20.033Z,35
2017-08-29T08:12:28.882Z,35
2017-08-29T08:13:37.734Z,35
2017-08-29T08:14:46.585Z,35
2017-08-29T08:15:55.440Z,35
2017-08-29T08:17:04.295Z,35
2017-08-29T08:18:13.154Z,35
2017-08-29T08:19:22.330Z,35
2017-08-29T08:20:31.183Z,35
2017-08-29T08:21:40.034Z,35
2017-08-29T08:22:48.884Z,35
2017-08-29T08:23:57.739Z,35
2017-08-29T08:25:06.591Z,35
2017-08-29T08:26:15.443Z,35
2017-08-29T08:27:24.297Z,35
2017-08-29T08:28:33.145Z,35
2017-08-29T08:29:41.996Z,35
2017-08-29T08:30:50.850Z,35
2017-08-29T08:31:59.703Z,35
2017-08-29T08:33:08.553Z,35
2017-08-29T08:34:17.408Z,35
2017-08-29T08:35:26.259Z,35
2017-08-29T08:36:35.111Z,35
2017-08-29T08:37:43.964Z,35
2017-08-29T08:38:52.819Z,35
2017-08-29T08:40:01.672Z,35
2017-08-29T08:41:10.525Z,35
2017-08-29T08:42:19.390Z,35
2017-08-29T08:43:28.238Z,35
2017-08-29T08:44:37.093Z,35
2017-08-29T08:45:45.946Z,35
2017-08-29T08:46:54.798Z,35
2017-08-29T08:48:03.650Z,35
2017-08-29T08:49:12.505Z,35
2017-08-29T08:50:21.358Z,35
2017-08-29T08:51:30.211Z,35
2017-08-29T08:52:39.064Z,35
2017-08-29T08:53:48.240Z,35
2017-08-29T08:54:57.420Z,35
2017-08-29T08:56:06.271Z,35
2017-08-29T08:57:15.124Z,35
2017-08-29T08:58:23.976Z,40
2017-08-29T08:59:32.828Z,40
2017-08-29T09:00:41.686Z,40
2017-08-29T09:01:50.541Z,40
2017-08-29T09:02:59.391Z,40
2017-08-29T09:04:08.254Z,40
2017-08-29T09:05:17.095Z,40
2017-08-29T09:06:25.949Z,40
2017-08-29T09:07:34.805Z,40
2017-08-29T09:08:43.661Z,40
2017-08-29T09:09:52.515Z,40
2017-08-29T09:11:01.369Z,40
2017-08-29T09:12:10.549Z,40
2017-08-29T09:13:19.401Z,40
2017-08-29T09:14:28.257Z,40
2017-08-29T09:15:37.112Z,40
2017-08-29T09:16:45.967Z,40
2017-08-29T09:17:54.818Z,40
2017-08-29T09:19:03.675Z,40
2017-08-29T09:20:12.524Z,40
2017-08-29T09:21:21.380Z,45
2017-08-29T09:22:30.236Z,40
2017-08-29T09:23:39.088Z,40
2017-08-29T09:24:47.939Z,40
2017-08-29T09:25:56.794Z,40
2017-08-29T09:27:05.651Z,40
2017-08-29T09:28:14.499Z,45
2017-08-29T09:29:23.352Z,45
2017-08-29T09:30:32.205Z,45
2017-08-29T09:31:41.056Z,45
2017-08-29T09:32:49.909Z,45
2017-08-29T09:33:58.763Z,45
2017-08-29T09:35:07.614Z,45
2017-08-29T09:36:16.469Z,45
2017-08-29T09:37:25.321Z,45
2017-08-29T09:38:34.205Z,45
2017-08-29T09:39:43.031Z,45
2017-08-29T09:40:51.883Z,45
2017-08-29T09:42:00.739Z,45
2017-08-29T09:43:09.602Z,45
2017-08-29T09:44:18.452Z,45
2017-08-29T09:45:27.305Z,45
2017-08-29T09:46:36.160Z,45
2017-08-29T09:47:45.016Z,45
2017-08-29T09:48:53.869Z,45
2017-08-29T09:50:02.723Z,55
2017-08-29T09:51:11.581Z,45
2017-08-29T09:52:20.756Z,45
2017-08-29T09:53:29.610Z,45
2017-08-29T09:54:38.467Z,45
2017-08-29T09:55:47.320Z,45
2017-08-29T09:56:56.171Z,45
2017-08-29T09:58:05.025Z,45
2017-08-29T09:59:13.877Z,45
2017-08-29T10:00:22.732Z,45
2017-08-29T10:01:31.586Z,45
2017-08-29T10:02:40.437Z,50
2017-08-29T10:03:49.295Z,50
2017-08-29T10:04:58.146Z,50
2017-08-29T10:06:06.998Z,50
2017-08-29T10:07:15.853Z,50
2017-08-29T10:08:24.712Z,50
2017-08-29T10:09:33.889Z,50
2017-08-29T10:10:42.745Z,50
2017-08-29T10:11:51.600Z,50
2017-08-29T10:13:00.452Z,50
2017-08-29T10:14:09.307Z,50
2017-08-29T10:15:18.164Z,50
2017-08-29T10:16:27.015Z,50
2017-08-29T10:17:35.870Z,50
2017-08-29T10:18:44.725Z,50
2017-08-29T10:19:53.578Z,50
2017-08-29T10:21:02.442Z,50
2017-08-29T10:22:11.294Z,50
2017-08-29T10:23:20.146Z,50
2017-08-29T10:24:29.004Z,50
2017-08-29T10:25:37.855Z,50
2017-08-29T10:26:46.707Z,50
2017-08-29T10:27:55.562Z,50
2017-08-29T10:29:04.418Z,50
2017-08-29T10:30:13.273Z,50
2017-08-29T10:31:22.126Z,50
2017-08-29T10:32:30.982Z,50
2017-08-29T10:33:39.833Z,50
2017-08-29T10:34:48.691Z,50
2017-08-29T10:35:57.546Z,50
2017-08-29T10:37:06.399Z,50
2017-08-29T10:38:15.250Z,50
2017-08-29T10:39:24.112Z,50
2017-08-29T10:40:32.962Z,50
2017-08-29T10:41:41.817Z,50
2017-08-29T10:42:50.675Z,50
2017-08-29T10:43:59.527Z,50
2017-08-29T10:45:08.379Z,50
2017-08-29T10:46:17.237Z,50
2017-08-29T10:47:26.089Z,50
2017-08-29T10:48:34.946Z,50
2017-08-29T10:49:43.806Z,50
2017-08-29T10:50:52.655Z,50
2017-08-29T10:52:01.511Z,50
2017-08-29T10:53:10.364Z,50
2017-08-29T10:54:19.219Z,50
2017-08-29T10:55:28.071Z,50
2017-08-29T10:56:36.925Z,50
2017-08-29T10:57:45.782Z,50
2017-08-29T10:58:54.642Z,50
2017-08-29T11:00:03.495Z,50
2017-08-29T11:01:12.352Z,50
2017-08-29T11:02:21.207Z,50
2017-08-29T11:03:30.063Z,50
2017-08-29T11:04:38.918Z,50
2017-08-29T11:05:47.774Z,50
2017-08-29T11:06:56.955Z,50
2017-08-29T11:08:05.806Z,50
2017-08-29T11:09:14.663Z,50
2017-08-29T11:10:23.535Z,50
2017-08-29T11:11:32.373Z,50
2017-08-29T11:12:41.229Z,50
2017-08-29T11:13:50.081Z,50
2017-08-29T11:14:58.935Z,50
2017-08-29T11:16:07.791Z,50
2017-08-29T11:17:16.643Z,50
2017-08-29T11:18:25.500Z,50
2017-08-29T11:19:34.682Z,50
2017-08-29T11:20:43.533Z,50
2017-08-29T11:21:52.387Z,50
2017-08-29T11:23:01.242Z,50
2017-08-29T11:24:10.095Z,50
2017-08-29T11:25:18.951Z,50
2017-08-29T11:26:27.812Z,50
2017-08-29T11:27:36.665Z,50
2017-08-29T11:28:45.519Z,50
2017-08-29T11:29:54.374Z,50
2017-08-29T11:31:03.229Z,55
2017-08-29T11:32:12.087Z,50
2017-08-29T11:33:20.942Z,50
2017-08-29T11:34:29.794Z,50
2017-08-29T11:35:38.647Z,50
2017-08-29T11:36:47.507Z,55
2017-08-29T11:37:56.362Z,50
2017-08-29T11:39:05.220Z,50
2017-08-29T11:40:14.075Z,50
2017-08-29T11:41:22.933Z,50
2017-08-29T11:42:31.787Z,50
2017-08-29T11:43:40.644Z,50
2017-08-29T11:44:49.503Z,50
2017-08-29T11:45:58.355Z,50
2017-08-29T11:47:07.217Z,50
2017-08-29T11:48:16.071Z,50
2017-08-29T11:49:24.926Z,50
2017-08-29T11:50:33.781Z,50
2017-08-29T11:51:42.638Z,50
2017-08-29T11:52:51.494Z,50
2017-08-29T11:54:00.352Z,50
2017-08-29T11:55:09.209Z,50
2017-08-29T11:56:18.062Z,45
2017-08-29T11:57:27.244Z,45
2017-08-29T11:58:36.103Z,45
2017-08-29T11:59:44.961Z,45
2017-08-29T12:00:53.819Z,45
2017-08-29T12:02:02.672Z,45
2017-08-29T12:03:11.533Z,45
2017-08-29T12:04:20.389Z,45
2017-08-29T12:05:29.244Z,45
2017-08-29T12:06:38.097Z,45
2017-08-29T12:07:46.955Z,45
2017-08-29T12:08:55.809Z,45
2017-08-29T12:10:04.666Z,45
2017-08-29T12:11:13.523Z,45
2017-08-29T12:12:22.380Z,45
2017-08-29T12:13:31.235Z,45
2017-08-29T12:14:40.092Z,45
2017-08-29T12:15:48.945Z,45
2017-08-29T12:16:57.798Z,45
2017-08-29T12:18:06.657Z,45
2017-08-29T12:19:15.515Z,45
2017-08-29T12:20:24.695Z,45
2017-08-29T12:21:33.549Z,45
2017-08-29T12:22:42.407Z,45
2017-08-29T12:23:51.260Z,45
2017-08-29T12:25:00.116Z,45
2017-08-29T12:26:08.972Z,45
2017-08-29T12:27:17.827Z,45
2017-08-29T12:28:26.680Z,45
2017-08-29T12:29:35.538Z,45
2017-08-29T12:30:44.390Z,45
2017-08-29T12:31:53.247Z,45
2017-08-29T12:33:02.105Z,45
2017-08-29T12:34:11.008Z,45
2017-08-29T12:35:19.860Z,45
2017-08-29T12:36:28.714Z,40
2017-08-29T12:37:37.569Z,40
2017-08-29T12:38:46.426Z,40
2017-08-29T12:39:55.284Z,40
2017-08-29T12:41:04.135Z,40
2017-08-29T12:42:13.006Z,40
2017-08-29T12:43:21.841Z,40
2017-08-29T12:44:30.695Z,40
2017-08-29T12:45:39.549Z,40
2017-08-29T12:46:48.407Z,40
2017-08-29T12:47:57.262Z,40
2017-08-29T12:49:06.119Z,40
2017-08-29T12:50:14.974Z,45
2017-08-29T12:51:23.830Z,40
2017-08-29T12:52:32.683Z,40
2017-08-29T12:53:41.538Z,40
2017-08-29T12:54:50.730Z,40
2017-08-29T12:55:59.586Z,40
2017-08-29T12:57:08.437Z,40
2017-08-29T12:58:17.292Z,40
2017-08-29T12:59:26.150Z,40
2017-08-29T13:00:35.002Z,40
2017-08-29T13:01:43.860Z,40
2017-08-29T13:02:52.720Z,40
2017-08-29T13:04:01.571Z,40
2017-08-29T13:05:10.427Z,40
2017-08-29T13:06:19.285Z,40
2017-08-29T13:07:28.140Z,40
2017-08-29T13:08:36.999Z,40
2017-08-29T13:09:45.857Z,40
2017-08-29T13:10:54.710Z,40
2017-08-29T13:12:03.565Z,40
2017-08-29T13:13:12.419Z,40
2017-08-29T13:14:21.272Z,45
2017-08-29T13:15:30.128Z,45
2017-08-29T13:16:38.987Z,45
2017-08-29T13:17:47.842Z,45
2017-08-29T13:18:56.696Z,45
2017-08-29T13:20:05.555Z,45
2017-08-29T13:21:14.407Z,45
2017-08-29T13:22:23.263Z,45
2017-08-29T13:23:32.121Z,45
2017-08-29T13:24:40.974Z,45
2017-08-29T13:25:49.829Z,45
2017-08-29T13:26:58.687Z,45
2017-08-29T13:28:07.541Z,45
2017-08-29T13:29:16.400Z,45
2017-08-29T13:30:25.257Z,45
2017-08-29T13:31:34.120Z,45
2017-08-29T13:32:42.975Z,45
2017-08-29T13:33:51.830Z,45
2017-08-29T13:35:00.685Z,45
2017-08-29T13:36:09.540Z,45
2017-08-29T13:37:18.399Z,45
2017-08-29T13:38:27.252Z,45
2017-08-29T13:39:36.108Z,45
2017-08-29T13:40:44.966Z,45
2017-08-29T13:41:53.822Z,45
2017-08-29T13:43:02.677Z,45
2017-08-29T13:44:11.534Z,45
2017-08-29T13:45:20.387Z,45
2017-08-29T13:46:29.240Z,45
2017-08-29T13:47:38.098Z,45
2017-08-29T13:48:46.954Z,45
2017-08-29T13:49:55.810Z,45
2017-08-29T13:51:04.667Z,45
2017-08-29T13:52:13.522Z,45
2017-08-29T13:53:22.377Z,45
2017-08-29T13:54:31.233Z,45
2017-08-29T13:55:40.088Z,45
2017-08-29T13:56:48.943Z,45
2017-08-29T13:57:57.799Z,45
2017-08-29T13:59:06.653Z,45
2017-08-29T14:00:15.508Z,45
2017-08-29T14:01:24.366Z,45
2017-08-29T14:02:33.223Z,45
2017-08-29T14:03:42.077Z,45
2017-08-29T14:04:50.931Z,45
2017-08-29T14:05:59.813Z,45
2017-08-29T14:07:08.642Z,45
2017-08-29T14:08:17.501Z,45
2017-08-29T14:09:26.357Z,45
2017-08-29T14:10:35.212Z,45
2017-08-29T14:11:44.068Z,45
2017-08-29T14:12:52.924Z,45
2017-08-29T14:14:01.780Z,45
2017-08-29T14:15:10.637Z,45
2017-08-29T14:16:19.493Z,45
2017-08-29T14:17:28.347Z,45
2017-08-29T14:18:37.204Z,45
2017-08-29T14:19:46.061Z,45
2017-08-29T14:20:54.918Z,45
2017-08-29T14:22:03.780Z,40
2017-08-29T14:23:12.632Z,40
2017-08-29T14:24:21.487Z,45
2017-08-29T14:25:30.340Z,40
2017-08-29T14:26:39.199Z,40
2017-08-29T14:27:48.053Z,40
2017-08-29T14:28:56.911Z,40
2017-08-29T14:30:05.779Z,40
2017-08-29T14:31:14.627Z,40
2017-08-29T14:32:23.482Z,40
2017-08-29T14:33:32.339Z,40
2017-08-29T14:34:41.194Z,40
2017-08-29T14:35:50.051Z,40
2017-08-29T14:36:58.910Z,40
2017-08-29T14:38:07.764Z,35
2017-08-29T14:39:16.618Z,35
2017-08-29T14:40:25.478Z,35
2017-08-29T14:41:34.333Z,35
2017-08-29T14:42:43.190Z,35
2017-08-29T14:43:52.049Z,35
2017-08-29T14:45:00.903Z,35
2017-08-29T14:46:09.770Z,35
2017-08-29T14:47:18.614Z,35
2017-08-29T14:48:27.473Z,35
2017-08-29T14:49:36.331Z,35
2017-08-29T14:50:45.184Z,35
2017-08-29T14:51:54.042Z,35
2017-08-29T14:53:02.899Z,35
2017-08-29T14:54:11.757Z,35
2017-08-29T14:55:20.611Z,35
2017-08-29T14:56:29.469Z,35
2017-08-29T14:57:38.322Z,35
2017-08-29T14:58:47.177Z,35
2017-08-29T14:59:56.034Z,35
2017-08-29T15:01:04.888Z,35
2017-08-29T15:02:13.742Z,35
2017-08-29T15:03:22.600Z,35
2017-08-29T15:04:31.455Z,35
2017-08-29T15:05:40.314Z,35
2017-08-29T15:06:49.172Z,35
2017-08-29T15:07:58.030Z,30
2017-08-29T15:09:06.883Z,30
2017-08-29T15:10:15.739Z,35
2017-08-29T15:11:24.593Z,70
2017-08-29T15:12:33.450Z,105
2017-08-29T15:13:42.306Z,55
2017-08-29T15:14:51.486Z,30
2017-08-29T15:16:00.344Z,30
2017-08-29T15:17:09.201Z,30
2017-08-29T15:18:18.055Z,30
2017-08-29T15:19:27.234Z,30
2017-08-29T15:20:36.092Z,30
2017-08-29T15:21:44.944Z,30
2017-08-29T15:22:53.797Z,30
2017-08-29T15:24:02.656Z,30
2017-08-29T15:25:11.515Z,30
2017-08-29T15:26:20.371Z,30
2017-08-29T15:27:29.229Z,25
2017-08-29T15:28:38.085Z,25
2017-08-29T15:29:46.941Z,25
2017-08-29T15:30:55.799Z,25
2017-08-29T15:32:04.656Z,25
2017-08-29T15:33:13.511Z,25
2017-08-29T15:34:22.387Z,25
2017-08-29T15:35:31.219Z,25
2017-08-29T15:36:40.073Z,25
2017-08-29T15:37:48.933Z,25
2017-08-29T15:38:57.791Z,25
2017-08-29T15:40:06.652Z,25
2017-08-29T15:41:15.508Z,25
2017-08-29T15:42:24.359Z,25
2017-08-29T15:43:33.213Z,25
2017-08-29T15:44:42.068Z,25
2017-08-29T15:45:50.926Z,20
2017-08-29T15:46:59.788Z,20
2017-08-29T15:48:08.648Z,20
2017-08-29T15:49:17.505Z,20
2017-08-29T15:50:26.360Z,20
2017-08-29T15:51:35.220Z,20
2017-08-29T15:52:44.078Z,20
2017-08-29T15:53:52.930Z,20
2017-08-29T15:55:01.790Z,20
2017-08-29T15:56:10.640Z,20
2017-08-29T15:57:19.496Z,20
2017-08-29T15:58:28.351Z,20
2017-08-29T15:59:37.208Z,20
2017-08-29T16:00:46.064Z,20
2017-08-29T16:01:54.919Z,20
2017-08-29T16:03:03.778Z,20
2017-08-29T16:04:12.632Z,15
2017-08-29T16:05:21.490Z,15
2017-08-29T16:06:30.349Z,15
2017-08-29T16:07:39.210Z,15
2017-08-29T16:08:48.065Z,15
2017-08-29T16:09:56.923Z,15
2017-08-29T16:11:05.776Z,15
2017-08-29T16:12:14.635Z,15
2017-08-29T16:13:23.491Z,15
2017-08-29T16:14:32.346Z,15
2017-08-29T16:15:41.203Z,15
2017-08-29T16:16:50.055Z,15
2017-08-29T16:17:58.908Z,15
2017-08-29T16:19:07.765Z,15
2017-08-29T16:20:16.623Z,15
2017-08-29T16:21:25.476Z,15
2017-08-29T16:22:34.330Z,15
2017-08-29T16:23:43.188Z,15
2017-08-29T16:24:52.042Z,10
2017-08-29T16:26:00.899Z,10
2017-08-29T16:27:09.755Z,10
2017-08-29T16:28:18.612Z,10
2017-08-29T16:29:27.465Z,10
2017-08-29T16:30:36.323Z,10
2017-08-29T16:31:45.177Z,10
2017-08-29T16:32:54.033Z,10